createdAt,value
2019-03-31T00:01:25.922Z,61.30
2019-03-31T00:03:55.458Z,62.00
2019-03-31T00:06:25.413Z,62.10
2019-03-31T00:08:55.264Z,62.30
2019-03-31T00:11:24.708Z,61.70
2019-03-31T00:13:54.170Z,62.70
2019-03-31T00:16:24.221Z,62.40
2019-03-31T00:18:54.119Z,62.00
2019-03-31T00:21:23.845Z,61.80
2019-03-31T00:23:53.466Z,62.50
2019-03-31T00:26:23.021Z,62.50
2019-03-31T00:28:52.557Z,62.20
2019-03-31T00:31:22.768Z,61.10
2019-03-31T00:33:52.601Z,61.60
2019-03-31T00:36:22.111Z,61.20
2019-03-31T00:38:51.609Z,61.40
2019-03-31T00:41:21.309Z,61.30
2019-03-31T00:43:50.946Z,61.80
2019-03-31T00:46:20.704Z,62.00
2019-03-31T00:48:50.413Z,60.50
2019-03-31T00:51:21.228Z,61.40
2019-03-31T00:53:50.868Z,61.60
2019-03-31T00:56:20.330Z,61.80
2019-03-31T00:58:49.719Z,60.90
2019-03-31T01:01:20.810Z,61.20
2019-03-31T01:03:50.565Z,61.30
2019-03-31T01:06:21.268Z,61.10
2019-03-31T01:08:50.970Z,61.00
2019-03-31T01:11:24.864Z,60.80
2019-03-31T01:13:55.578Z,60.50
2019-03-31T01:16:26.885Z,61.80
2019-03-31T01:18:56.326Z,61.10
2019-03-31T01:21:26.033Z,61.40
2019-03-31T01:23:56.513Z,61.90
2019-03-31T01:26:26.091Z,62.00
2019-03-31T01:28:57.086Z,62.30
2019-03-31T01:31:28.328Z,62.50
2019-03-31T01:33:57.934Z,63.40
2019-03-31T01:36:27.659Z,64.10
2019-03-31T01:38:57.286Z,64.40
2019-03-31T01:41:27.004Z,64.30
2019-03-31T01:43:56.724Z,64.70
2019-03-31T01:46:28.052Z,65.20
2019-03-31T01:48:57.755Z,65.10
2019-03-31T01:51:28.900Z,65.30
2019-03-31T01:53:58.340Z,65.50
2019-03-31T01:56:27.798Z,65.40
2019-03-31T01:58:57.711Z,65.40
2019-03-31T02:01:27.702Z,65.10
2019-03-31T02:03:57.721Z,65.20
2019-03-31T02:06:27.648Z,65.00
2019-03-31T02:08:57.296Z,65.30
2019-03-31T02:11:26.986Z,65.50
2019-03-31T02:13:56.680Z,65.70
2019-03-31T02:16:26.395Z,66.10
2019-03-31T02:18:55.833Z,66.00
2019-03-31T02:21:25.301Z,66.20
2019-03-31T02:23:54.908Z,66.20
2019-03-31T02:26:24.553Z,66.60
2019-03-31T02:28:54.306Z,66.00
2019-03-31T02:31:24.461Z,66.20
2019-03-31T02:33:53.872Z,65.60
2019-03-31T02:36:23.497Z,65.30
2019-03-31T02:38:52.860Z,64.90
2019-03-31T02:41:22.615Z,64.60
2019-03-31T02:43:52.153Z,64.00
2019-03-31T02:46:22.066Z,63.80
2019-03-31T02:48:51.795Z,63.30
2019-03-31T02:51:21.443Z,64.00
2019-03-31T02:53:51.201Z,64.30
2019-03-31T02:56:22.556Z,63.70
2019-03-31T02:58:54.722Z,63.90
2019-03-31T03:01:26.099Z,64.20
2019-03-31T03:03:58.262Z,63.70
2019-03-31T03:06:30.924Z,63.70
2019-03-31T03:09:02.030Z,62.70
2019-03-31T03:11:32.614Z,63.00
2019-03-31T03:14:03.510Z,62.90
2019-03-31T03:16:33.143Z,62.50
2019-03-31T03:19:02.591Z,63.30
2019-03-31T03:21:32.316Z,62.60
2019-03-31T03:24:02.048Z,62.40
2019-03-31T03:26:31.931Z,62.30
2019-03-31T03:29:01.635Z,61.20
2019-03-31T03:31:31.139Z,60.30
2019-03-31T03:34:01.022Z,60.10
2019-03-31T03:36:31.176Z,59.30
2019-03-31T03:39:00.903Z,59.40
2019-03-31T03:41:30.620Z,59.50
2019-03-31T03:44:02.442Z,60.40
2019-03-31T03:46:31.761Z,62.10
2019-03-31T03:49:01.399Z,63.40
2019-03-31T03:51:30.959Z,63.40
2019-03-31T03:54:01.084Z,63.50
2019-03-31T03:56:30.529Z,63.30
2019-03-31T03:58:59.995Z,63.50
2019-03-31T04:01:31.335Z,63.40
2019-03-31T04:04:00.888Z,63.00
2019-03-31T04:06:30.488Z,63.20
2019-03-31T04:09:00.035Z,61.80
2019-03-31T04:11:29.820Z,62.20
2019-03-31T04:13:59.691Z,62.30
2019-03-31T04:16:29.157Z,62.80
2019-03-31T04:18:59.086Z,63.30
2019-03-31T04:21:28.796Z,63.60
2019-03-31T04:23:58.417Z,64.80
2019-03-31T04:26:28.255Z,64.20
2019-03-31T04:28:57.893Z,62.70
2019-03-31T04:31:27.430Z,62.10
2019-03-31T04:33:57.083Z,60.90
2019-03-31T04:36:26.600Z,61.40
2019-03-31T04:39:00.108Z,61.40
2019-03-31T04:41:27.895Z,61.90
2019-03-31T04:43:57.593Z,62.00
2019-03-31T04:46:27.089Z,62.30
2019-03-31T04:48:56.806Z,62.50
2019-03-31T04:51:26.502Z,62.50
2019-03-31T04:53:56.656Z,62.90
2019-03-31T04:56:26.055Z,63.00
2019-03-31T04:58:55.865Z,62.70
2019-03-31T05:01:25.702Z,62.90
2019-03-31T05:04:04.735Z,63.10
2019-03-31T05:06:27.656Z,63.20
2019-03-31T05:08:57.569Z,62.40
2019-03-31T05:11:27.047Z,62.60
2019-03-31T05:13:56.955Z,62.50
2019-03-31T05:16:26.855Z,62.70
2019-03-31T05:18:56.811Z,63.30
2019-03-31T05:21:26.481Z,63.40
2019-03-31T05:23:55.943Z,63.50
2019-03-31T05:26:25.504Z,63.60
2019-03-31T05:28:55.161Z,63.30
2019-03-31T05:31:24.715Z,62.80
2019-03-31T05:33:54.219Z,63.40
2019-03-31T05:36:23.915Z,63.30
2019-03-31T05:38:53.666Z,63.60
2019-03-31T05:41:23.327Z,63.10
2019-03-31T05:44:05.091Z,63.40
2019-03-31T05:46:24.356Z,62.50
2019-03-31T05:48:53.868Z,62.80
2019-03-31T05:51:23.955Z,62.70
2019-03-31T05:53:53.429Z,62.70
2019-03-31T05:56:22.977Z,63.30
2019-03-31T05:58:52.731Z,63.40
2019-03-31T06:01:22.438Z,63.20
2019-03-31T06:03:52.179Z,62.90
2019-03-31T06:06:21.640Z,62.40
2019-03-31T06:08:51.377Z,62.40
2019-03-31T06:11:21.256Z,62.80
2019-03-31T06:13:51.578Z,60.90
2019-03-31T06:16:21.397Z,60.40
2019-03-31T06:18:50.884Z,59.60
2019-03-31T06:21:20.525Z,58.80
2019-03-31T06:23:49.935Z,59.50
2019-03-31T06:26:19.486Z,57.90
2019-03-31T06:28:48.862Z,57.80
2019-03-31T06:31:18.238Z,59.50
2019-03-31T06:33:47.996Z,59.20
2019-03-31T06:36:17.428Z,59.10
2019-03-31T06:38:47.006Z,59.10
2019-03-31T06:41:16.741Z,59.00
2019-03-31T07:48:26.346Z,58.30
2019-03-31T07:50:55.921Z,57.20
2019-03-31T07:53:25.561Z,57.70
2019-03-31T07:55:55.320Z,59.10
2019-03-31T07:58:25.202Z,58.60
2019-03-31T08:00:55.083Z,58.60
2019-03-31T08:03:26.660Z,57.60
2019-03-31T08:05:56.109Z,58.00
2019-03-31T08:08:25.856Z,57.30
2019-03-31T08:10:55.886Z,57.30
2019-03-31T08:13:25.499Z,57.10
2019-03-31T08:15:54.972Z,58.20
2019-03-31T08:18:24.582Z,57.00
2019-03-31T08:20:54.163Z,57.10
2019-03-31T08:23:25.088Z,56.50
2019-03-31T08:25:54.634Z,55.70
2019-03-31T08:28:25.058Z,55.70
2019-03-31T08:30:54.760Z,55.20
2019-03-31T08:33:24.619Z,56.10
2019-03-31T08:35:54.278Z,55.60
2019-03-31T08:38:24.548Z,56.70
2019-03-31T08:40:55.101Z,56.90
2019-03-31T08:43:24.471Z,52.80
2019-03-31T08:45:55.324Z,52.30
2019-03-31T08:48:24.889Z,53.30
2019-03-31T08:50:54.817Z,53.80
2019-03-31T08:53:24.463Z,53.20
2019-03-31T08:55:54.026Z,52.40
2019-03-31T08:58:23.835Z,52.90
2019-03-31T09:00:54.990Z,51.80
2019-03-31T09:03:24.546Z,50.90
2019-03-31T09:06:01.572Z,52.40
2019-03-31T09:08:25.462Z,51.50
2019-03-31T09:10:55.114Z,50.60
2019-03-31T09:13:24.697Z,49.60
2019-03-31T09:15:54.172Z,50.00
2019-03-31T09:18:23.627Z,49.40
2019-03-31T09:20:53.186Z,50.30
2019-03-31T09:23:22.853Z,51.60
2019-03-31T09:25:52.936Z,51.80
2019-03-31T09:28:22.686Z,50.90
2019-03-31T09:30:52.649Z,50.30
2019-03-31T09:33:22.284Z,49.70
2019-03-31T09:35:52.412Z,49.40
2019-03-31T09:38:22.311Z,49.60
2019-03-31T09:40:52.047Z,49.20
2019-03-31T09:43:21.502Z,47.80
2019-03-31T09:45:50.913Z,49.00
2019-03-31T09:48:20.556Z,47.90
2019-03-31T09:50:50.272Z,49.30
2019-03-31T09:53:20.021Z,47.90
2019-03-31T09:55:49.782Z,49.10
2019-03-31T09:58:19.852Z,48.80
2019-03-31T10:00:53.174Z,49.40
2019-03-31T10:03:23.635Z,49.20
2019-03-31T10:05:53.106Z,48.50
2019-03-31T10:08:22.772Z,47.50
2019-03-31T10:10:52.425Z,49.60
2019-03-31T10:13:22.562Z,47.90
2019-03-31T10:15:52.481Z,49.60
2019-03-31T10:18:22.060Z,47.40
2019-03-31T10:20:51.712Z,46.50
2019-03-31T10:23:21.150Z,48.10
2019-03-31T10:25:50.596Z,50.60
2019-03-31T10:28:20.151Z,47.80
2019-03-31T10:30:50.094Z,48.00
2019-03-31T10:33:19.714Z,50.00
2019-03-31T10:35:49.267Z,48.40
2019-03-31T10:38:19.011Z,48.10
2019-03-31T10:40:48.910Z,48.30
2019-03-31T10:43:18.525Z,49.60
2019-03-31T10:45:48.189Z,48.70
2019-03-31T10:48:21.235Z,47.20
2019-03-31T10:50:50.623Z,49.30
2019-03-31T10:53:20.081Z,49.90
2019-03-31T10:55:49.875Z,48.30
2019-03-31T10:58:19.550Z,45.60
2019-03-31T11:00:49.294Z,44.60
2019-03-31T11:03:18.764Z,43.80
2019-03-31T11:05:48.900Z,44.30
2019-03-31T11:08:18.387Z,42.70
2019-03-31T11:10:48.563Z,45.20
2019-03-31T11:13:18.108Z,45.50
2019-03-31T11:15:47.979Z,46.00
2019-03-31T11:18:17.414Z,44.80
2019-03-31T11:20:47.153Z,47.90
2019-03-31T11:23:18.556Z,40.90
2019-03-31T11:25:48.033Z,43.00
2019-03-31T11:28:17.680Z,41.90
2019-03-31T11:30:47.909Z,43.30
2019-03-31T11:33:17.760Z,43.90
2019-03-31T11:35:47.593Z,42.80
2019-03-31T11:38:17.354Z,45.10
2019-03-31T11:40:47.138Z,44.50
2019-03-31T11:43:16.510Z,42.80
2019-03-31T11:45:46.279Z,39.50
2019-03-31T11:48:15.743Z,37.40
2019-03-31T11:50:45.477Z,40.30
2019-03-31T11:53:15.394Z,44.10
2019-03-31T11:55:45.107Z,40.30
2019-03-31T11:58:14.614Z,43.00
2019-03-31T12:00:48.696Z,44.90
2019-03-31T12:03:21.404Z,39.80
2019-03-31T12:05:51.066Z,38.00
2019-03-31T12:08:20.614Z,39.80
2019-03-31T12:10:50.341Z,35.70
2019-03-31T12:13:20.033Z,35.10
2019-03-31T12:15:49.720Z,33.20
2019-03-31T12:18:19.355Z,33.50
2019-03-31T12:20:48.742Z,33.90
2019-03-31T12:23:18.244Z,34.20
2019-03-31T12:25:48.575Z,36.60
2019-03-31T12:28:18.226Z,37.20
2019-03-31T12:30:47.786Z,36.90
2019-03-31T12:33:17.543Z,33.70
2019-03-31T12:35:47.202Z,32.00
2019-03-31T12:38:16.601Z,33.90
2019-03-31T12:40:46.063Z,32.30
2019-03-31T12:43:15.796Z,36.00
2019-03-31T12:45:45.309Z,37.30
2019-03-31T12:48:14.792Z,39.20
2019-03-31T12:50:44.486Z,38.20
2019-03-31T12:53:14.206Z,37.60
2019-03-31T12:55:44.114Z,39.80
2019-03-31T12:58:13.703Z,37.80
2019-03-31T13:00:43.191Z,39.20
2019-03-31T13:03:16.001Z,40.40
2019-03-31T13:05:43.764Z,37.80
2019-03-31T13:08:13.233Z,41.40
2019-03-31T13:10:42.753Z,40.20
2019-03-31T13:13:12.413Z,35.30
2019-03-31T13:15:42.048Z,34.70
2019-03-31T13:18:11.617Z,34.00
2019-03-31T13:20:41.823Z,36.70
2019-03-31T13:23:11.346Z,35.80
2019-03-31T13:25:40.987Z,38.60
2019-03-31T13:28:10.619Z,36.90
2019-03-31T13:30:40.417Z,36.20
2019-03-31T13:33:09.883Z,33.90
2019-03-31T13:35:39.575Z,35.90
2019-03-31T13:38:11.249Z,38.40
2019-03-31T13:40:40.458Z,35.80
2019-03-31T13:43:09.846Z,36.40
2019-03-31T13:45:39.349Z,36.30
2019-03-31T13:48:09.103Z,35.20
2019-03-31T13:50:38.642Z,33.80
2019-03-31T13:53:08.372Z,34.40
2019-03-31T13:55:38.027Z,34.70
2019-03-31T13:58:08.558Z,35.20
2019-03-31T14:00:40.229Z,38.70
2019-03-31T14:03:10.314Z,36.60
2019-03-31T14:05:40.117Z,35.50
2019-03-31T14:08:24.728Z,35.30
2019-03-31T14:10:41.576Z,33.90
2019-03-31T14:13:11.412Z,34.80
2019-03-31T14:15:41.255Z,32.80
2019-03-31T14:18:10.910Z,31.70
2019-03-31T14:20:40.461Z,31.90
2019-03-31T14:23:10.381Z,29.00
2019-03-31T14:25:39.867Z,28.50
2019-03-31T14:28:09.526Z,30.50
2019-03-31T14:30:39.073Z,28.80
2019-03-31T14:33:08.598Z,30.00
2019-03-31T14:35:39.313Z,28.50
2019-03-31T14:38:09.232Z,29.40
2019-03-31T14:40:38.935Z,28.70
2019-03-31T14:43:08.707Z,29.80
2019-03-31T14:45:38.303Z,29.50
2019-03-31T14:48:07.852Z,29.10
2019-03-31T14:50:38.194Z,29.00
2019-03-31T14:53:07.900Z,28.70
2019-03-31T14:55:37.695Z,29.10
2019-03-31T14:58:08.135Z,28.50
2019-03-31T15:00:38.089Z,28.10
2019-03-31T15:03:07.750Z,27.40
2019-03-31T15:05:37.256Z,28.20
2019-03-31T15:08:06.999Z,28.20
2019-03-31T15:10:36.873Z,26.50
2019-03-31T15:13:06.383Z,26.70
2019-03-31T15:15:35.899Z,27.70
2019-03-31T15:18:05.656Z,27.00
2019-03-31T15:20:35.466Z,27.90
2019-03-31T15:23:05.219Z,28.80
2019-03-31T15:25:34.764Z,27.60
2019-03-31T15:28:04.592Z,26.60
2019-03-31T15:30:34.195Z,26.60
2019-03-31T15:33:04.384Z,26.30
2019-03-31T15:35:37.481Z,29.50
2019-03-31T15:38:05.463Z,27.30
2019-03-31T15:40:35.011Z,29.30
2019-03-31T15:43:04.580Z,27.30
2019-03-31T15:45:34.409Z,28.70
2019-03-31T15:48:05.024Z,27.50
2019-03-31T15:50:34.691Z,27.70
2019-03-31T15:53:04.562Z,29.80
2019-03-31T15:55:34.350Z,28.30
2019-03-31T15:58:05.393Z,28.60
2019-03-31T16:00:35.359Z,29.30
2019-03-31T16:03:05.057Z,29.20
2019-03-31T16:05:34.730Z,27.60
2019-03-31T16:08:04.289Z,27.70
2019-03-31T16:10:33.655Z,28.70
2019-03-31T16:13:03.552Z,28.80
2019-03-31T16:15:34.176Z,28.60
2019-03-31T16:18:04.488Z,32.70
2019-03-31T16:20:34.302Z,32.50
2019-03-31T16:23:04.147Z,34.90
2019-03-31T16:25:35.620Z,35.70
2019-03-31T16:28:05.104Z,35.50
2019-03-31T16:30:36.740Z,35.00
2019-03-31T16:33:07.279Z,36.90
2019-03-31T16:35:37.095Z,36.40
2019-03-31T16:38:06.651Z,37.60
2019-03-31T16:40:36.266Z,38.90
2019-03-31T16:43:05.723Z,40.10
2019-03-31T16:45:35.361Z,37.80
2019-03-31T16:48:04.935Z,37.50
2019-03-31T16:50:34.624Z,37.90
2019-03-31T16:53:04.322Z,39.40
2019-03-31T16:55:34.015Z,41.20
2019-03-31T16:58:03.799Z,39.10
2019-03-31T17:00:33.229Z,38.90
2019-03-31T17:03:02.690Z,41.70
2019-03-31T17:05:32.127Z,42.70
2019-03-31T17:08:01.790Z,42.00
2019-03-31T17:10:31.256Z,40.20
2019-03-31T17:13:00.916Z,41.60
2019-03-31T17:15:30.655Z,41.10
2019-03-31T17:18:00.113Z,40.40
2019-03-31T17:20:29.651Z,41.70
2019-03-31T17:22:59.402Z,42.90
2019-03-31T17:25:28.799Z,44.90
2019-03-31T17:27:58.362Z,41.10
2019-03-31T17:30:27.908Z,42.10
2019-03-31T17:32:57.575Z,40.20
2019-03-31T17:35:27.313Z,41.70
2019-03-31T17:37:56.765Z,42.00
2019-03-31T17:40:27.157Z,43.20
2019-03-31T17:42:56.846Z,43.50
2019-03-31T17:45:26.487Z,42.10
2019-03-31T17:47:56.217Z,42.90
2019-03-31T17:50:25.865Z,43.50
2019-03-31T17:52:55.673Z,44.10
2019-03-31T17:55:26.495Z,41.80
2019-03-31T17:57:57.342Z,42.30
2019-03-31T18:00:26.812Z,42.40
2019-03-31T18:02:56.513Z,41.60
2019-03-31T18:05:26.227Z,41.50
2019-03-31T18:07:56.188Z,41.60
2019-03-31T18:10:25.844Z,41.80
2019-03-31T18:12:56.071Z,42.20
2019-03-31T18:15:25.719Z,41.80
2019-03-31T18:17:55.426Z,40.80
2019-03-31T18:20:24.868Z,42.60
2019-03-31T18:22:54.407Z,43.20
2019-03-31T18:25:23.878Z,41.90
2019-03-31T18:27:53.632Z,43.50
2019-03-31T18:30:23.471Z,44.20
2019-03-31T18:32:53.189Z,43.10
2019-03-31T18:35:22.726Z,43.50
2019-03-31T18:37:52.462Z,44.30
2019-03-31T18:40:34.283Z,45.30
2019-03-31T18:42:54.739Z,44.90
2019-03-31T18:45:24.860Z,43.40
2019-03-31T18:47:54.300Z,44.60
2019-03-31T18:50:24.234Z,41.10
2019-03-31T18:52:55.117Z,40.50
2019-03-31T18:55:33.463Z,40.10
2019-03-31T18:58:04.868Z,39.50
2019-03-31T19:00:53.186Z,41.00
2019-03-31T19:03:30.589Z,40.40
2019-03-31T19:06:07.598Z,40.00
2019-03-31T19:08:38.899Z,41.80
2019-03-31T19:11:09.971Z,39.50
2019-03-31T19:13:56.331Z,40.10
2019-03-31T19:16:45.447Z,39.50
2019-03-31T19:19:33.326Z,40.60
2019-03-31T19:22:13.797Z,41.10
2019-03-31T19:25:01.180Z,42.00
2019-03-31T19:27:41.752Z,41.30
2019-03-31T19:30:25.094Z,40.40
2019-03-31T19:32:56.250Z,41.70
2019-03-31T19:35:33.220Z,41.40
2019-03-31T19:38:03.493Z,42.80
2019-03-31T19:41:03.825Z,42.50
2019-03-31T19:43:29.377Z,43.50
2019-03-31T19:46:17.116Z,43.40
2019-03-31T19:48:51.402Z,43.10
2019-03-31T19:51:25.034Z,43.00
2019-03-31T19:54:12.851Z,43.30
2019-03-31T19:57:00.549Z,42.10
2019-03-31T19:59:40.811Z,42.00
2019-03-31T20:02:18.573Z,43.00
2019-03-31T20:04:56.037Z,42.50
2019-03-31T20:07:27.119Z,41.70
2019-03-31T20:10:16.378Z,42.40
2019-03-31T20:13:04.119Z,41.70
2019-03-31T20:15:38.381Z,42.00
2019-03-31T20:18:21.587Z,44.20
2019-03-31T20:20:52.888Z,43.20
2019-03-31T20:23:32.816Z,43.20
2019-03-31T20:26:03.993Z,41.80
2019-03-31T20:28:38.100Z,41.40
2019-03-31T20:31:18.391Z,42.20
2019-03-31T20:34:08.121Z,42.70
2019-03-31T20:36:41.881Z,42.30
2019-03-31T20:39:16.358Z,43.70
2019-03-31T20:41:59.467Z,44.90
2019-03-31T20:44:28.846Z,44.70
2019-03-31T20:46:58.282Z,43.60
2019-03-31T20:49:28.033Z,44.80
2019-03-31T20:51:57.463Z,43.50
2019-03-31T20:54:27.298Z,44.40
2019-03-31T20:56:56.946Z,44.10
2019-03-31T20:59:26.728Z,44.80
2019-03-31T21:01:56.424Z,44.00
2019-03-31T21:04:25.850Z,44.30
2019-03-31T21:06:55.655Z,44.40
2019-03-31T21:09:25.328Z,43.90
2019-03-31T21:11:54.836Z,44.00
2019-03-31T21:14:24.944Z,44.00
2019-03-31T21:16:54.872Z,42.90
2019-03-31T21:19:24.513Z,43.10
2019-03-31T21:21:54.055Z,44.60
2019-03-31T21:24:23.595Z,44.60
2019-03-31T21:26:53.283Z,45.50
2019-03-31T21:29:23.027Z,45.70
2019-03-31T21:31:52.459Z,45.10
2019-03-31T21:34:22.413Z,44.20
2019-03-31T21:36:52.161Z,44.90
2019-03-31T21:39:22.206Z,44.60
2019-03-31T21:41:51.954Z,42.70
2019-03-31T21:44:21.402Z,43.40
2019-03-31T21:46:51.135Z,43.20
2019-03-31T21:49:20.868Z,43.70
2019-03-31T21:51:50.763Z,44.00
2019-03-31T21:54:20.503Z,44.80
2019-03-31T21:56:49.949Z,44.90
2019-03-31T21:59:19.692Z,45.10
2019-03-31T22:01:49.851Z,44.30
2019-03-31T22:04:19.506Z,46.00
2019-03-31T22:06:48.959Z,47.00
2019-03-31T22:09:19.936Z,47.30
2019-03-31T22:11:49.852Z,47.80
2019-03-31T22:14:19.574Z,48.60
2019-03-31T22:16:49.078Z,49.00
2019-03-31T22:19:18.832Z,49.70
2019-03-31T22:21:49.452Z,49.40
2019-03-31T22:24:18.911Z,48.80
2019-03-31T22:26:48.732Z,49.00
2019-03-31T22:29:18.244Z,49.60
2019-03-31T22:31:47.884Z,49.40
2019-03-31T22:34:17.318Z,49.80
2019-03-31T22:36:46.971Z,49.40
2019-03-31T22:39:16.795Z,48.20
2019-03-31T22:41:46.230Z,48.10
2019-03-31T22:44:15.871Z,48.50
2019-03-31T22:46:54.039Z,47.90
2019-03-31T22:49:16.598Z,48.00
2019-03-31T22:51:46.322Z,47.60
2019-03-31T22:54:16.165Z,46.70
2019-03-31T22:56:45.986Z,46.90
2019-03-31T22:59:15.543Z,46.90
2019-03-31T23:01:45.337Z,47.10
2019-03-31T23:04:14.760Z,47.80
2019-03-31T23:06:44.275Z,48.40
2019-03-31T23:09:14.511Z,47.40
2019-03-31T23:11:43.938Z,47.30
2019-03-31T23:14:14.817Z,48.10
2019-03-31T23:16:44.507Z,49.30
2019-03-31T23:19:13.879Z,47.50
2019-03-31T23:21:43.576Z,48.00
2019-03-31T23:24:13.223Z,48.20
2019-03-31T23:26:43.167Z,48.30
2019-03-31T23:29:12.806Z,46.70
2019-03-31T23:31:42.233Z,46.80
2019-03-31T23:34:11.873Z,46.30
2019-03-31T23:36:41.501Z,46.60
2019-03-31T23:39:10.875Z,47.40
2019-03-31T23:41:40.593Z,48.10
2019-03-31T23:44:10.036Z,47.20
2019-03-31T23:46:39.969Z,47.40
2019-03-31T23:49:09.394Z,48.20
2019-03-31T23:51:39.040Z,47.90
2019-03-31T23:54:08.723Z,48.00
2019-03-31T23:56:38.420Z,48.10
2019-03-31T23:59:07.961Z,47.20
